• Join FlightAware (Why Join?)
  • Login
  • US Flag 
10:38AM EDT


 

Airport Tracker/Info


-or-


 

Live Flight TrackerFlight Track Log ✈ TAM3712 ✈ 30-Sep-2013 ✈ SBSP / CGH - SBBR / BSB

Flight Track Log - Related Links

Times and Time Zones

All times are in EDT time to prevent confusion due to time zone crossing. See the TAM3712 flight status page for this flight to view local times or setup timezone preferences in your user account.

Time Position Orientation Groundspeed Altitude Reporting Facility
EDT Latitude Longitude Course Direction KTS MPH feet Rate Location/Type
06:30PM -23.6210 -46.6600 360° North  Level FlightAware
06:30PM -23.6430 -46.6450 148° Southeast 159 183 3,300 3,960 Climbing FlightAware
06:31PM -23.6480 -46.6400 138° Southeast 162 186 3,600 1,080 Climbing FlightAware
06:31PM -23.6510 -46.6340 119° Southeast 171 197 3,600 360 Level FlightAware
06:31PM -23.6510 -46.6260 90° East 181 208 3,700 720 Climbing FlightAware
06:31PM -23.6490 -46.6180 75° East 197 227 3,800 720 Climbing FlightAware
06:31PM -23.6420 -46.6110 42° Northeast 203 234 3,900 1,080 Climbing FlightAware
06:31PM -23.6380 -46.6070 42° Northeast 205 236 4,100 960 Climbing FlightAware
06:32PM -23.6200 -46.5960 29° Northeast 227 261 4,400 960 Climbing FlightAware
06:32PM -23.6130 -46.5880 46° Northeast 245 282 4,600 1,020 Climbing FlightAware
06:32PM -23.6090 -46.5790 64° Northeast 263 303 4,700 1,860 Climbing FlightAware
06:32PM -23.6010 -46.5510 73° East 280 322 5,500 2,640 Climbing FlightAware
06:33PM -23.5950 -46.5160 79° East 282 325 6,700 2,580 Climbing FlightAware
06:33PM -23.5910 -46.4930 79° East 289 333 7,300 2,460 Climbing FlightAware
06:33PM -23.5790 -46.4350 77° East 307 353 8,700 2,400 Climbing FlightAware
06:34PM -23.5720 -46.4040 76° East 316 364 9,400 1,860 Climbing FlightAware
06:34PM -23.5650 -46.3730 76° East 320 368 10,000 1,080 Climbing FlightAware
06:35PM -23.5510 -46.3160 75° East 341 392 10,400 660 Climbing FlightAware
06:35PM -23.5440 -46.3030 60° Northeast 345 397 10,500 900 Climbing FlightAware
06:35PM -23.5310 -46.2890 45° Northeast 347 399 10,700 900 Climbing FlightAware
06:35PM -23.5200 -46.2830 27° Northeast 345 397 10,800 1,080 Climbing FlightAware
06:35PM -23.5080 -46.2790 17° North 343 395 11,000 1,260 Climbing FlightAware
06:35PM -23.4980 -46.2780 North 344 396 11,100 840 Climbing FlightAware
06:36PM -23.4640 -46.2880 345° North 351 404 11,400 840 Climbing FlightAware
06:36PM -23.4150 -46.3160 332° Northwest 377 434 11,900 1,320 Climbing FlightAware
06:37PM -23.3590 -46.3490 332° Northwest 393 452 12,900 1,920 Climbing FlightAware
06:37PM -23.3000 -46.3810 334° Northwest 392 451 14,300 1,980 Climbing FlightAware
06:38PM -23.2410 -46.4130 334° Northwest 401 461 15,300 1,560 Climbing FlightAware
06:39PM -23.1860 -46.4430 333° Northwest 410 472 16,100 1,620 Climbing FlightAware
06:39PM -23.1250 -46.4760 334° Northwest 415 478 17,200 1,920 Climbing FlightAware
06:40PM -23.0640 -46.5090 334° Northwest 412 474 18,400 1,560 Climbing FlightAware
06:40PM -23.0010 -46.5430 334° Northwest 421 484 19,100 1,080 Climbing FlightAware
06:41PM -22.9500 -46.5690 335° Northwest 433 498 19,600 1,020 Climbing FlightAware
06:41PM -22.9270 -46.5740 349° North 440 506 19,800 1,500 Climbing FlightAware
06:42PM -22.8550 -46.5860 351° North 440 506 20,800 1,620 Climbing FlightAware
06:42PM -22.7820 -46.5980 351° North 437 503 21,800 1,320 Climbing FlightAware
06:43PM -22.7170 -46.6090 351° North 444 511 22,300 1,140 Climbing FlightAware
06:43PM -22.6440 -46.6220 351° North 443 510 23,100 1,320 Climbing FlightAware
06:44PM -22.5750 -46.6330 352° North 442 509 23,900 1,380 Climbing FlightAware
06:45PM -22.5050 -46.6440 352° North 436 502 24,700 1,020 Climbing FlightAware
06:45PM -22.4340 -46.6550 352° North 441 507 25,100 1,260 Climbing FlightAware
06:46PM -22.3650 -46.6670 351° North 422 486 26,200 1,380 Climbing FlightAware
06:46PM -22.2940 -46.6780 352° North 436 502 26,700 900 Climbing FlightAware
06:47PM -22.2250 -46.6880 352° North 436 502 27,300 900 Climbing FlightAware
06:47PM -22.1540 -46.6990 352° North 442 509 27,800 840 Climbing FlightAware
06:48PM -22.0820 -46.7100 352° North 436 502 28,300 1,260 Climbing FlightAware
06:49PM -22.0240 -46.7250 347° North 417 480 29,200 1,680 Climbing FlightAware
06:49PM -21.9530 -46.7590 336° Northwest 405 466 30,300 1,320 Climbing FlightAware
06:50PM -21.8910 -46.7870 337° Northwest 405 466 30,900 1,140 Climbing FlightAware
06:50PM -21.8290 -46.8160 337° Northwest 404 465 31,700 1,080 Climbing FlightAware
06:51PM -21.7670 -46.8450 337° Northwest 404 465 32,200 900 Climbing FlightAware
06:52PM -21.7070 -46.8730 337° Northwest 403 464 32,800 1,140 Climbing FlightAware
06:52PM -21.6440 -46.9010 338° Northwest 405 466 33,600 840 Climbing FlightAware
06:53PM -21.5760 -46.9330 336° Northwest 403 464 33,900 720 Climbing FlightAware
06:53PM -21.5140 -46.9620 336° Northwest 401 461 34,500 900 Climbing FlightAware
06:54PM -21.4540 -46.9890 337° Northwest 401 461 35,000 840 Climbing FlightAware
06:55PM -21.3920 -47.0180 336° Northwest 407 468 35,500 480 Climbing FlightAware
06:55PM -21.3350 -47.0440 337° Northwest 402 463 35,600 300 Climbing FlightAware
06:56PM -21.2640 -47.0770 337° Northwest 417 480 35,900 540 Climbing FlightAware
06:56PM -21.2010 -47.1060 337° Northwest 415 478 36,300 660 Climbing FlightAware
06:57PM -21.1360 -47.1350 337° Northwest 413 475 36,700 480 Climbing FlightAware
06:57PM -21.0800 -47.1610 337° Northwest 417 480 36,900 240 Climbing FlightAware
06:58PM -21.0160 -47.1900 337° Northwest 421 484 37,000 60 Climbing FlightAware
06:59PM -20.9510 -47.2200 337° Northwest 427 491 37,000  Level FlightAware
06:59PM -20.8940 -47.2470 336° Northwest 430 495 37,000  Level FlightAware
07:00PM -20.8230 -47.2790 337° Northwest 430 495 37,000  Level FlightAware
07:00PM -20.7570 -47.3090 337° Northwest 430 495 37,000  Level FlightAware
07:01PM -20.6910 -47.3390 337° Northwest 429 494 37,000  Level FlightAware
07:02PM -20.6320 -47.3660 337° Northwest 430 495 37,000  Level FlightAware
07:02PM -20.5650 -47.3960 337° Northwest 432 497 37,000  Level FlightAware
07:03PM -20.5030 -47.4240 337° Northwest 434 499 37,000  Level FlightAware
07:03PM -20.4320 -47.4570 336° Northwest 435 501 37,000  Level FlightAware
07:04PM -20.3730 -47.4830 338° Northwest 435 501 37,000  Level FlightAware
07:05PM -20.3090 -47.5120 337° Northwest 433 498 37,000  Level FlightAware
07:05PM -20.2400 -47.5430 337° Northwest 432 497 37,000  Level FlightAware
07:06PM -20.1800 -47.5700 337° Northwest 432 497 37,000  Level FlightAware
07:06PM -20.1140 -47.6000 337° Northwest 431 496 37,000  Level FlightAware
07:07PM -20.0520 -47.6280 337° Northwest 433 498 37,000  Level FlightAware
07:07PM -19.9820 -47.6600 337° Northwest 435 501 37,000  Level FlightAware
07:08PM -19.9190 -47.6880 337° Northwest 432 497 37,000  Level FlightAware
07:09PM -19.8530 -47.7180 337° Northwest 436 502 37,000  Level FlightAware
07:09PM -19.7860 -47.7480 337° Northwest 440 506 37,000  Level FlightAware
07:10PM -19.7170 -47.7790 337° Northwest 444 511 37,000  Level FlightAware
07:10PM -19.6590 -47.8050 337° Northwest 443 510 37,000  Level FlightAware
07:11PM -19.5880 -47.8370 337° Northwest 439 505 37,000  Level FlightAware
07:12PM -19.5230 -47.8660 337° Northwest 438 504 37,000  Level FlightAware
07:12PM -19.4540 -47.8970 337° Northwest 439 505 37,000  Level FlightAware
07:13PM -19.3940 -47.9240 337° Northwest 440 506 37,000  Level FlightAware
07:13PM -19.3280 -47.9530 337° Northwest 438 504 37,000  Level FlightAware
07:14PM -19.2600 -47.9830 337° Northwest 444 511 37,000  Level FlightAware
07:14PM -19.1920 -48.0140 337° Northwest 442 509 37,000  Level FlightAware
07:15PM -19.1330 -48.0400 337° Northwest 441 507 37,000  Level FlightAware
07:16PM -19.0660 -48.0700 337° Northwest 440 506 37,000  Level FlightAware
07:16PM -18.9960 -48.0980 339° North 440 506 37,000  Level FlightAware
07:17PM -18.9210 -48.1110 351° North 442 509 37,000  Level FlightAware
07:17PM -18.8580 -48.1210 351° North 445 512 37,000  Level FlightAware
07:18PM -18.7820 -48.1330 351° North 452 520 37,000  Level FlightAware
07:19PM -18.7070 -48.1450 351° North 456 525 37,000  Level FlightAware
07:19PM -18.6410 -48.1550 352° North 460 529 37,000 60 Level FlightAware
07:20PM -18.5700 -48.1660 352° North 460 529 37,100 60 Climbing FlightAware
07:20PM -18.4900 -48.1790 351° North 459 528 37,100  Level FlightAware
07:21PM -18.4170 -48.1900 352° North 455 524 37,100 -120 Level FlightAware
07:21PM -18.3400 -48.2030 351° North 452 520 37,000 -120 Descending FlightAware
07:22PM -18.2710 -48.2130 352° North 451 519 37,000  Level FlightAware
07:23PM -18.1980 -48.2250 351° North 457 526 37,000  Level FlightAware
07:23PM -18.1220 -48.2370 351° North 460 529 37,000  Level FlightAware
07:24PM -18.0590 -48.2470 351° North 461 531 37,000  Level FlightAware
07:24PM -17.9850 -48.2580 352° North 462 532 37,000  Level FlightAware
07:25PM -17.8990 -48.2720 351° North 463 533 37,000  Level FlightAware
07:26PM -17.8300 -48.2830 351° North 462 532 37,000  Level FlightAware
07:26PM -17.7520 -48.2950 352° North 464 534 37,000  Level FlightAware
07:27PM -17.6760 -48.3070 351° North 463 533 37,000 -300 Level FlightAware
07:27PM -17.6080 -48.3170 352° North 465 535 36,700 -1,800 Descending FlightAware
07:28PM -17.5300 -48.3300 351° North 464 534 35,000 -2,700 Descending FlightAware
07:28PM -17.4540 -48.3410 352° North 463 533 33,500 -2,880 Descending FlightAware
07:29PM -17.3760 -48.3540 351° North 471 542 31,600 -3,540 Descending FlightAware
07:30PM -17.2990 -48.3660 352° North 480 552 29,300 -3,660 Descending FlightAware
07:30PM -17.2260 -48.3770 352° North 482 555 27,500 -3,000 Descending FlightAware
07:31PM -17.1290 -48.3920 352° North 469 540 25,500 -2,700 Descending FlightAware
07:31PM -17.0670 -48.4020 351° North 460 529 24,200 -2,520 Descending FlightAware
07:32PM -16.9860 -48.4130 353° North 451 519 22,700 -2,220 Descending FlightAware
07:32PM -16.9350 -48.4070 North 446 513 21,900 -2,160 Descending FlightAware
07:33PM -16.8560 -48.3840 16° North 431 496 20,400 -2,340 Descending FlightAware
07:34PM -16.7900 -48.3620 18° North 425 489 19,000 -2,160 Descending FlightAware
07:34PM -16.7410 -48.3370 26° Northeast 397 457 18,100 -2,100 Descending FlightAware
07:35PM -16.6760 -48.3020 27° Northeast 377 434 16,600 -2,100 Descending FlightAware
07:35PM -16.6520 -48.2910 24° Northeast 371 427 16,200 -1,080 Descending FlightAware
07:36PM -16.6040 -48.2800 12° North 344 396 15,800 -1,320 Descending FlightAware
07:36PM -16.5520 -48.2680 12° North 326 375 14,800 -1,800 Descending FlightAware
07:37PM -16.4920 -48.2550 12° North 319 367 13,600 -1,680 Descending FlightAware
07:37PM -16.4490 -48.2450 13° North 315 362 12,900 -1,740 Descending FlightAware
07:38PM -16.3920 -48.2320 12° North 313 360 11,600 -1,620 Descending FlightAware
07:39PM -16.3430 -48.2210 12° North 315 362 10,900 -960 Descending FlightAware
07:39PM -16.3010 -48.2120 12° North 302 348 10,600 -660 Descending FlightAware
07:40PM -16.2540 -48.2010 13° North 292 336 10,200 -780 Descending FlightAware
07:40PM -16.2280 -48.1950 12° North 288 331 9,900 -1,200 Descending FlightAware
07:40PM -16.2020 -48.1900 10° North 287 330 9,400 -1,200 Descending FlightAware
07:41PM -16.1760 -48.1840 12° North 277 319 9,100 -780 Descending FlightAware
07:41PM -16.1510 -48.1790 11° North 264 304 8,900 -540 Descending FlightAware
07:41PM -16.1220 -48.1800 358° North 249 287 8,700 -600 Descending FlightAware
07:42PM -16.0940 -48.1810 358° North 234 269 8,400 -540 Descending FlightAware
07:42PM -16.0730 -48.1810 360° North 223 257 8,300 -480 Descending FlightAware
07:43PM -16.0520 -48.1820 357° North 217 250 8,100 -780 Descending FlightAware
07:43PM -16.0320 -48.1820 360° North 213 245 7,800 -900 Descending FlightAware
07:43PM -16.0120 -48.1830 357° North 212 244 7,500 -840 Descending FlightAware
07:44PM -15.9880 -48.1830 360° North 212 244 7,200 -720 Descending FlightAware
07:44PM -15.9700 -48.1770 18° North 218 251 7,000 -480 Descending FlightAware
07:44PM -15.9660 -48.1730 44° Northeast 218 251 7,000 -600 Level FlightAware
07:44PM -15.9480 -48.1540 45° Northeast 218 251 6,700 -600 Descending FlightAware
07:45PM -15.9380 -48.1430 47° Northeast 215 247 6,600 -300 Descending FlightAware
07:45PM -15.9210 -48.1250 46° Northeast 215 247 6,500 -300 Descending FlightAware
07:45PM -15.9060 -48.1100 44° Northeast 214 246 6,400 -480 Descending FlightAware
07:46PM -15.8930 -48.0950 48° Northeast 218 251 6,200 -600 Descending FlightAware
07:46PM -15.8910 -48.0850 78° East 214 246 6,100 -600 Descending FlightAware
07:46PM -15.8890 -48.0650 84° East 197 227 5,900 -1,080 Descending FlightAware
07:47PM -15.8880 -48.0470 87° East 189 217 5,400 -1,380 Descending FlightAware
07:47PM -15.8860 -48.0240 85° East 182 209 4,900 -1,080 Descending FlightAware
07:47PM -15.8850 -48.0120 85° East 169 194 4,700 -900 Descending FlightAware
07:48PM -15.8840 -47.9920 87° East 163 188 4,300 -840 Descending FlightAware
07:48PM -15.8830 -47.9770 86° East 162 186 4,100 -780 Descending FlightAware
07:48PM -15.8820 -47.9610 86° East 164 189 3,800 -900 Descending FlightAware
07:49PM -15.8810 -47.9450 86° East 162 186 3,500 -780 Descending FlightAware
07:49PM -15.8800 -47.9320 85° East 158 182 3,300 -300 Descending FlightAware
07:50PM -15.8790 -47.9140 87° East 158 182 3,300 60 Level FlightAware
07:50PM -15.8780 -47.9170 289° West 158 182 3,400 60 Climbing FlightAware
07:50PM -15.8770 -47.9010 86° East 158 182 3,400  Level FlightAware